Time;durP1;ratioP1;P1;durP2;ratioP2;P2;SDS_P1;SDS_P2;PMS_P1;PMS_P2;Temp;Humidity;BMP_temperature;BMP_pressure;BME280_temperature;BME280_humidity;BME280_pressure;Samples;Min_cycle;Max_cycle;Signal;HPM_P1;HPM_P2
2021/01/19 00:01:50;;;;;;;359.93;96.60;;;;;;;2.81;62.98;99118.84;5075965;28;20024;-88
2021/01/19 00:04:15;;;;;;;363.40;97.53;;;;;;;2.72;63.66;99117.84;5060355;28;20037;-87
2021/01/19 00:06:40;;;;;;;358.80;95.70;;;;;;;2.80;63.15;99122.22;5059726;28;20164;-86
2021/01/19 00:09:06;;;;;;;362.07;96.77;;;;;;;2.74;63.38;99120.41;5077295;28;20064;-87
2021/01/19 00:11:31;;;;;;;365.70;98.93;;;;;;;2.82;64.05;99148.41;5059872;28;20047;-89
2021/01/19 00:13:57;;;;;;;362.33;98.40;;;;;;;2.86;64.13;99129.91;5075593;28;20100;-86
2021/01/19 00:16:22;;;;;;;366.73;101.07;;;;;;;2.55;63.84;99077.84;5078929;28;20364;-86
2021/01/19 00:18:48;;;;;;;356.80;95.47;;;;;;;2.70;64.51;99113.59;5074336;28;21527;-86
2021/01/19 00:21:13;;;;;;;357.83;95.93;;;;;;;2.56;64.47;99095.59;5077095;28;20065;-87
2021/01/19 00:23:39;;;;;;;368.70;100.47;;;;;;;2.58;64.22;99093.09;5076491;28;20033;-87
2021/01/19 00:26:04;;;;;;;357.30;95.30;;;;;;;2.72;63.81;99115.31;5077248;28;20063;-87
2021/01/19 00:28:30;;;;;;;360.37;95.90;;;;;;;2.69;64.15;99130.44;5078248;28;20025;-89
2021/01/19 00:30:55;;;;;;;346.67;95.47;;;;;;;2.53;64.75;99087.94;5047212;28;20029;-88
2021/01/19 00:33:21;;;;;;;348.40;95.97;;;;;;;2.71;64.96;99125.44;5058041;28;20438;-88
2021/01/19 00:35:47;;;;;;;348.87;94.30;;;;;;;2.70;64.08;99114.44;5056337;28;20125;-89
2021/01/19 00:38:12;;;;;;;354.67;95.10;;;;;;;2.76;64.49;99126.34;5056799;28;20300;-87
2021/01/19 00:40:38;;;;;;;354.70;93.80;;;;;;;2.51;64.32;99073.53;5038372;28;20127;-89
2021/01/19 00:43:03;;;;;;;352.20;95.83;;;;;;;2.75;63.95;99115.41;5038853;28;20416;-86
2021/01/19 00:45:29;;;;;;;346.50;92.20;;;;;;;2.70;64.41;99131.31;5038783;28;20094;-88
2021/01/19 00:47:54;;;;;;;352.93;94.63;;;;;;;2.46;64.03;99085.25;5056873;28;20036;-89
2021/01/19 00:50:20;;;;;;;354.90;94.47;;;;;;;2.64;64.07;99121.03;5055967;28;20033;-88
2021/01/19 00:52:45;;;;;;;356.63;96.20;;;;;;;2.64;63.32;99111.78;5057015;28;20063;-89
2021/01/19 00:55:13;;;;;;;353.67;97.10;;;;;;;2.69;63.61;99109.34;5055949;28;20103;-87
2021/01/19 00:57:38;;;;;;;1.07;0.60;;;;;;;2.70;63.58;99118.66;5039543;28;20496;-88
2021/01/19 01:00:06;;;;;;;0.43;0.43;;;;;;;2.60;63.59;99093.97;5055567;28;20037;-88
2021/01/19 01:02:34;;;;;;;0.87;0.43;;;;;;;2.37;63.24;99059.78;5056226;28;20029;-87
2021/01/19 01:05:00;;;;;;;0.57;0.50;;;;;;;2.55;63.18;99093.00;5070610;28;20021;-88
2021/01/19 01:07:31;;;;;;;1.07;0.50;;;;;;;2.39;63.24;99051.38;5056992;28;20044;-87
2021/01/19 01:09:56;;;;;;;0.93;0.80;;;;;;;2.67;63.34;99113.53;5064640;28;20033;-85
2021/01/19 01:12:22;;;;;;;0.50;0.50;;;;;;;2.37;63.30;99065.69;5064402;28;20066;-86
2021/01/19 01:14:47;;;;;;;0.50;0.50;;;;;;;2.47;63.37;99100.47;5062273;28;20041;-84
2021/01/19 01:17:12;;;;;;;0.60;0.60;;;;;;;2.28;63.18;99078.16;5056340;28;20406;-87
2021/01/19 01:19:38;;;;;;;1.07;0.40;;;;;;;2.40;63.74;99085.97;5055534;28;20044;-85
2021/01/19 01:22:04;;;;;;;0.93;0.70;;;;;;;2.56;62.84;99107.38;5055874;28;20397;-85
2021/01/19 01:24:30;;;;;;;1.53;0.60;;;;;;;2.42;63.21;99102.03;5054691;28;20107;-86
2021/01/19 01:26:55;;;;;;;0.83;0.70;;;;;;;2.44;63.46;99079.31;5050978;28;20144;-87
2021/01/19 01:29:21;;;;;;;0.67;0.43;;;;;;;2.55;62.64;99098.94;5060091;28;20132;-89
2021/01/19 01:31:46;;;;;;;0.50;0.50;;;;;;;2.50;62.92;99108.13;5076409;28;20112;-88
2021/01/19 01:34:12;;;;;;;0.77;0.50;;;;;;;2.44;63.22;99095.34;5078529;28;20032;-88
2021/01/19 01:36:41;;;;;;;0.50;0.50;;;;;;;2.63;63.18;99107.53;5078210;28;20031;-88
2021/01/19 01:39:06;;;;;;;2.37;0.60;;;;;;;2.44;63.54;99082.69;5076313;28;20052;-89
2021/01/19 01:41:32;;;;;;;0.63;0.60;;;;;;;2.53;63.15;99105.66;5075087;28;20028;-88
2021/01/19 01:43:57;;;;;;;5.10;1.50;;;;;;;2.58;62.88;99098.16;5057777;28;20465;-85
2021/01/19 01:46:23;;;;;;;305.53;88.63;;;;;;;2.64;63.10;99106.72;5040524;28;20473;-86
2021/01/19 01:48:49;;;;;;;349.83;94.83;;;;;;;2.61;62.78;99106.66;5058119;28;20032;-84
2021/01/19 01:51:15;;;;;;;331.63;93.60;;;;;;;2.45;63.33;99088.59;5056229;28;20052;-87
2021/01/19 01:53:41;;;;;;;356.33;93.63;;;;;;;2.41;61.67;99076.72;5076026;28;20048;-86
2021/01/19 01:56:08;;;;;;;354.47;95.60;;;;;;;2.66;61.62;99091.56;5075335;28;20274;-86
2021/01/19 01:58:35;;;;;;;0.57;0.57;;;;;;;2.67;61.65;99091.56;5058406;28;20328;-87
2021/01/19 02:01:01;;;;;;;1.77;0.63;;;;;;;2.67;61.65;99094.09;5076923;28;20032;-86
2021/01/19 02:03:26;;;;;;;0.73;0.70;;;;;;;2.68;61.38;99088.22;5071540;28;20051;-87
2021/01/19 02:05:52;;;;;;;0.97;0.60;;;;;;;2.58;61.16;99075.38;5075195;28;20024;-86
2021/01/19 02:08:46;;;;;;;0.70;0.70;;;;;;;2.75;61.25;99087.53;5096920;28;20023;-86
2021/01/19 02:11:30;;;;;;;1.07;0.60;;;;;;;2.80;60.95;99089.31;5084994;28;20106;-86
2021/01/19 02:14:34;;;;;;;1.30;0.50;;;;;;;2.80;60.96;99086.78;5073094;28;20114;-85
2021/01/19 02:17:04;;;;;;;1.73;1.20;;;;;;;2.73;60.45;99088.31;5072384;28;20036;-85
2021/01/19 02:20:00;;;;;;;0.50;0.50;;;;;;;2.70;60.71;99075.63;5058516;28;20128;-84
2021/01/19 02:22:46;;;;;;;0.43;0.32;;;;;;;2.73;60.05;99074.00;5056300;28;20496;-87
2021/01/19 02:25:46;;;;;;;2.00;0.60;;;;;;;2.81;60.20;99084.25;5075152;28;20051;-88
2021/01/19 02:28:49;;;;;;;0.40;0.40;;;;;;;2.71;60.60;99075.66;5074339;28;20056;-88
2021/01/19 02:31:41;;;;;;;1.67;1.47;;;;;;;2.78;60.20;99084.22;5056735;28;20036;-87
2021/01/19 02:34:28;;;;;;;1.93;1.83;;;;;;;2.64;60.49;99078.88;5073977;28;20341;-88
2021/01/19 02:37:09;;;;;;;1.50;1.40;;;;;;;2.62;60.91;99082.22;5073499;28;20123;-87
2021/01/19 02:39:44;;;;;;;2.10;0.63;;;;;;;2.62;59.83;99072.94;5059580;28;20372;-86
2021/01/19 02:42:11;;;;;;;1.95;0.88;;;;;;;2.61;60.09;99078.81;5056591;28;20539;-88
2021/01/19 02:44:39;;;;;;;1.30;1.20;;;;;;;2.45;61.03;99071.75;5064218;28;20457;-88
2021/01/19 02:47:05;;;;;;;0.77;0.70;;;;;;;2.42;61.40;99080.97;5078898;28;20028;-87
2021/01/19 02:49:30;;;;;;;0.53;0.53;;;;;;;2.34;61.19;99069.81;5078232;28;20025;-88
2021/01/19 02:51:58;;;;;;;1.00;0.97;;;;;;;2.16;62.23;99068.63;5078393;28;20419;-88
2021/01/19 02:54:24;;;;;;;0.90;0.90;;;;;;;2.18;62.06;99069.50;5077746;28;20031;-87
2021/01/19 02:56:52;;;;;;;0.60;0.57;;;;;;;2.37;60.67;99064.84;5060428;28;20025;-86
2021/01/19 02:59:35;;;;;;;0.47;0.30;;;;;;;2.17;60.68;99002.03;5077360;28;20046;-86
2021/01/19 03:02:09;;;;;;;0.50;0.40;;;;;;;2.65;59.80;99049.34;5060374;28;20032;-86
2021/01/19 03:04:36;;;;;;;0.40;0.40;;;;;;;2.72;59.47;99063.81;5075222;28;20051;-86
2021/01/19 03:07:05;;;;;;;0.50;0.50;;;;;;;2.62;59.94;99037.50;5060041;28;20123;-84
2021/01/19 03:09:31;;;;;;;0.40;0.40;;;;;;;2.64;60.20;99056.09;5059658;28;20033;-86
2021/01/19 03:11:59;;;;;;;1.80;0.63;;;;;;;2.45;60.35;99025.34;5078686;28;20145;-86
2021/01/19 03:14:25;;;;;;;0.47;0.47;;;;;;;2.51;60.72;99046.56;5077527;28;20044;-86
2021/01/19 03:16:50;;;;;;;0.43;0.43;;;;;;;2.37;60.37;98999.91;5078171;28;20350;-86
2021/01/19 03:19:20;;;;;;;4.33;0.60;;;;;;;2.68;60.18;99039.28;5059034;28;20548;-86
2021/01/19 03:21:45;;;;;;;0.43;0.40;;;;;;;2.65;60.50;99029.97;5077388;28;20036;-86
2021/01/19 03:24:11;;;;;;;0.73;0.60;;;;;;;2.69;60.04;99024.13;5058853;28;20406;-86
2021/01/19 03:26:37;;;;;;;3.10;0.60;;;;;;;2.68;60.41;99022.41;5075913;28;20072;-86
2021/01/19 03:29:04;;;;;;;1.57;0.60;;;;;;;2.68;60.18;99024.09;5059192;28;20082;-87
2021/01/19 03:31:30;;;;;;;0.83;0.63;;;;;;;2.47;60.39;98989.13;5043918;28;20060;-86
2021/01/19 03:33:55;;;;;;;0.80;0.60;;;;;;;2.84;60.26;99026.09;5039473;28;20032;-87
2021/01/19 03:36:21;;;;;;;0.90;0.60;;;;;;;2.62;59.97;98986.03;5039081;28;20120;-88
2021/01/19 03:38:46;;;;;;;0.50;0.50;;;;;;;2.78;59.64;99007.41;5039477;28;20033;-86
2021/01/19 03:41:11;;;;;;;0.40;0.40;;;;;;;2.86;59.44;99003.31;5067171;28;20095;-87
2021/01/19 03:43:37;;;;;;;1.53;0.60;;;;;;;2.70;59.35;98989.56;5059587;28;20064;-86
2021/01/19 03:46:03;;;;;;;1.50;0.50;;;;;;;2.66;59.40;98991.19;5076025;28;20036;-87
2021/01/19 03:48:28;;;;;;;0.70;0.40;;;;;;;2.70;59.89;98998.00;5077900;28;20450;-88
2021/01/19 03:50:53;;;;;;;1.33;1.13;;;;;;;2.71;59.28;99002.25;5058383;28;20131;-86
2021/01/19 03:53:19;;;;;;;1.03;0.40;;;;;;;3.00;58.86;99029.75;5076057;28;20028;-85
2021/01/19 03:55:44;;;;;;;3.20;0.60;;;;;;;2.89;59.16;99021.94;5075706;28;20044;-86
2021/01/19 03:58:10;;;;;;;1.27;0.40;;;;;;;2.98;58.81;99026.31;5059351;28;20041;-87
2021/01/19 04:00:35;;;;;;;0.50;0.50;;;;;;;2.96;59.57;99021.25;5075522;28;20043;-85
2021/01/19 04:03:01;;;;;;;1.67;0.43;;;;;;;2.76;59.62;99012.44;5059377;28;20091;-85
2021/01/19 04:05:26;;;;;;;0.63;0.60;;;;;;;2.98;59.26;99026.31;5056948;28;20028;-84
2021/01/19 04:07:52;;;;;;;1.03;0.60;;;;;;;2.95;59.21;99011.94;5057230;28;20396;-84
2021/01/19 04:10:17;;;;;;;1.47;0.70;;;;;;;3.01;59.50;99024.69;5056234;28;20041;-84
2021/01/19 04:12:44;;;;;;;3.23;0.70;;;;;;;2.68;59.50;98970.94;5064051;28;20044;-85
2021/01/19 04:15:10;;;;;;;0.40;0.40;;;;;;;2.99;59.65;99015.38;5058372;28;20687;-86
2021/01/19 04:17:39;;;;;;;1.37;0.63;;;;;;;2.94;59.63;99014.44;5059237;28;20037;-84
2021/01/19 04:20:07;;;;;;;2.53;1.77;;;;;;;2.98;58.88;99011.13;5055832;28;20039;-85
2021/01/19 04:22:32;;;;;;;0.50;0.40;;;;;;;2.90;59.30;99002.56;5053884;28;20036;-85
2021/01/19 04:24:58;;;;;;;2.30;0.60;;;;;;;2.96;58.84;99025.47;5075911;28;20500;-85
2021/01/19 04:27:23;;;;;;;0.80;0.50;;;;;;;2.82;58.85;98992.28;5058073;28;20053;-86
2021/01/19 04:29:49;;;;;;;1.03;0.57;;;;;;;2.84;59.19;98999.94;5058679;28;20101;-85
2021/01/19 04:32:15;;;;;;;0.70;0.50;;;;;;;2.71;59.32;98999.72;5057651;28;20024;-86
2021/01/19 04:34:40;;;;;;;1.03;0.40;;;;;;;2.83;59.48;99019.31;5058366;28;20457;-86
2021/01/19 04:37:06;;;;;;;0.67;0.60;;;;;;;2.83;59.36;99010.88;5057664;28;20075;-86
2021/01/19 04:39:31;;;;;;;1.50;0.67;;;;;;;2.87;59.57;99023.63;5058008;28;20032;-85
2021/01/19 04:41:57;;;;;;;0.60;0.60;;;;;;;2.82;59.27;99020.16;5057414;28;20093;-86
2021/01/19 04:44:27;;;;;;;2.03;0.60;;;;;;;2.72;59.52;99003.06;5059024;28;20056;-89
2021/01/19 04:46:53;;;;;;;1.60;0.70;;;;;;;2.69;60.21;99021.59;5075875;28;20365;-88
2021/01/19 04:49:19;;;;;;;0.63;0.60;;;;;;;2.77;59.54;99016.66;5058853;28;20037;-89
2021/01/19 04:51:48;;;;;;;0.50;0.50;;;;;;;2.60;59.18;98980.09;5075275;28;20024;-88
2021/01/19 04:54:18;;;;;;;2.33;0.50;;;;;;;2.76;59.23;99018.34;5076746;28;20032;-89
2021/01/19 04:56:59;;;;;;;0.70;0.70;;;;;;;2.68;59.55;98999.63;5058408;28;20507;-89
2021/01/19 04:59:25;;;;;;;1.40;0.43;;;;;;;2.57;59.89;99003.66;5076243;28;20033;-86
2021/01/19 05:02:56;;;;;;;3.17;1.10;;;;;;;2.57;59.89;99003.66;5057431;28;20058;-87
2021/01/19 05:05:41;;;;;;;1.20;0.70;;;;;;;2.46;60.91;99012.72;5075393;28;20427;-86
2021/01/19 05:08:18;;;;;;;1.05;0.70;;;;;;;2.43;60.84;99010.13;5057407;28;20119;-87
2021/01/19 05:11:02;;;;;;;0.83;0.70;;;;;;;2.48;60.58;99007.69;5074149;28;20046;-87
2021/01/19 05:13:53;;;;;;;1.03;0.70;;;;;;;2.32;61.41;99018.34;5073954;28;20036;-86
2021/01/19 05:16:20;;;;;;;0.87;0.60;;;;;;;2.27;60.02;98980.31;5057131;28;20029;-88
2021/01/19 05:18:46;;;;;;;1.00;0.60;;;;;;;2.34;60.36;98982.13;5052107;28;20028;-86
2021/01/19 05:21:12;;;;;;;0.47;0.47;;;;;;;2.44;60.25;99001.72;5057219;28;20123;-86
2021/01/19 05:23:38;;;;;;;2.43;1.13;;;;;;;2.38;60.92;99014.25;5074106;28;20074;-86
2021/01/19 05:26:05;;;;;;;1.70;0.67;;;;;;;2.34;59.98;99002.38;5057579;28;20045;-86
2021/01/19 05:28:38;;;;;;;0.73;0.73;;;;;;;2.23;60.03;98988.66;5056750;28;20115;-87
2021/01/19 05:32:05;;;;;;;0.70;0.70;;;;;;;-142.25;100.00;58004.16;5057557;28;20028;-86
2021/01/19 05:35:33;;;;;;;1.10;0.60;;;;;;;-142.25;100.00;58004.16;5057306;28;20032;-86
2021/01/19 05:38:58;;;;;;;1.23;0.77;;;;;;;-142.25;100.00;58004.16;5073676;28;20132;-87
2021/01/19 05:42:32;;;;;;;2.73;0.70;;;;;;;-142.25;100.00;58004.16;5056733;28;20119;-87
2021/01/19 05:46:03;;;;;;;0.93;0.77;;;;;;;-142.25;100.00;58004.16;5073077;28;20060;-87
2021/01/19 05:49:38;;;;;;;1.77;1.13;;;;;;;-142.25;100.00;58004.16;5056795;28;20446;-87
2021/01/19 05:53:11;;;;;;;3.00;1.10;;;;;;;-142.25;100.00;58004.16;5075126;28;20108;-86
2021/01/19 05:56:42;;;;;;;2.90;0.77;;;;;;;-142.25;100.00;58004.16;5053729;28;20128;-86
2021/01/19 05:59:43;;;;;;;0.70;0.70;;;;;;;2.23;60.03;98988.66;5044663;28;20036;-86
2021/01/19 06:02:11;;;;;;;2.37;0.80;;;;;;;2.43;58.54;99016.88;5073407;28;20453;-87
2021/01/19 06:04:58;;;;;;;3.87;1.40;;;;;;;2.39;58.73;99004.97;5056163;28;20040;-85
2021/01/19 06:07:25;;;;;;;1.57;0.90;;;;;;;2.32;59.27;98996.44;5055782;28;20468;-84
2021/01/19 06:09:52;;;;;;;1.53;1.03;;;;;;;2.24;59.68;99014.00;5056304;28;20500;-85
2021/01/19 06:12:19;;;;;;;2.37;1.07;;;;;;;2.25;58.78;98999.66;5056318;28;20089;-85
2021/01/19 06:14:49;;;;;;;3.17;0.73;;;;;;;2.46;58.06;99011.88;5056392;28;20479;-84
2021/01/19 06:17:20;;;;;;;1.43;0.83;;;;;;;2.32;58.81;99014.16;5056117;28;20039;-85
2021/01/19 06:19:47;;;;;;;3.10;0.80;;;;;;;2.21;59.75;99011.38;5074439;28;20047;-86
2021/01/19 06:22:18;;;;;;;2.23;0.90;;;;;;;2.35;58.69;99006.59;5057612;28;20044;-88
2021/01/19 06:24:48;;;;;;;1.77;0.63;;;;;;;2.28;58.49;98987.09;5080120;28;20063;-87
2021/01/19 06:27:22;;;;;;;5.77;0.73;;;;;;;2.49;58.28;99015.31;5082587;28;20045;-90
2021/01/19 06:29:49;;;;;;;1.02;0.82;;;;;;;2.42;58.62;99010.13;5061817;28;20064;-91
2021/01/19 06:32:16;;;;;;;4.53;0.77;;;;;;;2.40;57.95;98994.06;5056692;28;20029;-90
2021/01/19 06:34:42;;;;;;;4.10;0.70;;;;;;;2.17;58.32;98976.75;5061666;28;20040;-90
2021/01/19 06:37:27;;;;;;;3.30;0.67;;;;;;;2.47;58.77;99019.50;5061918;28;20064;-91
2021/01/19 06:40:05;;;;;;;0.45;0.45;;;;;;;2.41;58.45;99005.88;5060841;28;20124;-90
2021/01/19 06:42:32;;;;;;;2.90;0.90;;;;;;;2.33;58.69;99005.75;5050420;28;20334;-86
2021/01/19 06:45:00;;;;;;;0.73;0.60;;;;;;;2.40;58.47;99006.69;5078850;28;20318;-87
2021/01/19 06:47:26;;;;;;;1.30;1.10;;;;;;;2.26;59.09;98981.97;5066673;28;20108;-90
2021/01/19 06:49:53;;;;;;;4.33;1.40;;;;;;;2.16;58.56;98969.16;5058665;28;20036;-89
2021/01/19 06:52:19;;;;;;;5.00;2.27;;;;;;;2.11;58.53;98950.50;5077404;28;20472;-88
2021/01/19 06:54:54;;;;;;;8.43;3.10;;;;;;;2.48;58.10;99002.63;5055329;28;20033;-87
2021/01/19 06:57:57;;;;;;;8.35;2.85;;;;;;;2.51;57.77;98997.63;5059430;28;20033;-89
2021/01/19 07:00:23;;;;;;;8.27;2.77;;;;;;;2.49;57.96;98979.03;5060070;28;20056;-85
2021/01/19 07:02:55;;;;;;;8.43;4.03;;;;;;;2.66;57.89;99000.44;5062665;28;20037;-88
2021/01/19 07:05:22;;;;;;;18.63;6.10;;;;;;;2.71;57.40;98992.13;5062968;28;20135;-88
2021/01/19 07:07:54;;;;;;;15.53;5.60;;;;;;;2.76;57.49;98992.19;5079350;28;20067;-87
2021/01/19 07:10:45;;;;;;;23.50;6.10;;;;;;;2.73;57.27;98992.13;5062125;28;20452;-90
2021/01/19 07:13:21;;;;;;;25.33;6.23;;;;;;;2.75;57.22;98980.38;5065890;28;20048;-89
2021/01/19 07:16:09;;;;;;;19.53;5.17;;;;;;;2.76;57.43;98982.91;5063150;28;20037;-87
2021/01/19 07:18:50;;;;;;;10.40;4.67;;;;;;;2.92;56.56;98990.78;5062321;28;20032;-87
2021/01/19 07:21:17;;;;;;;7.07;2.03;;;;;;;2.92;56.95;98993.31;5063742;28;20041;-88
2021/01/19 07:23:46;;;;;;;7.40;3.27;;;;;;;2.98;57.28;98994.25;5062063;28;20029;-89
2021/01/19 07:26:35;;;;;;;5.13;2.73;;;;;;;2.94;56.91;98982.38;5060928;28;20139;-86
2021/01/19 07:29:01;;;;;;;6.77;2.50;;;;;;;2.98;57.28;98985.81;5069291;28;20055;-87
2021/01/19 07:31:27;;;;;;;5.50;2.23;;;;;;;2.97;56.96;98966.41;5064444;28;20036;-87
2021/01/19 07:33:54;;;;;;;4.90;2.20;;;;;;;3.25;56.53;98983.72;5064244;28;20110;-86
2021/01/19 07:36:22;;;;;;;7.33;3.27;;;;;;;3.12;56.41;98959.03;5083862;28;20055;-88
2021/01/19 07:38:49;;;;;;;8.90;4.70;;;;;;;3.01;55.90;98932.69;5063775;28;20040;-88
2021/01/19 07:41:30;;;;;;;4.23;2.40;;;;;;;3.37;55.88;98976.31;5080730;28;20108;-90
2021/01/19 07:43:56;;;;;;;5.67;2.40;;;;;;;3.30;56.08;98982.13;5079759;28;20059;-87
2021/01/19 07:46:29;;;;;;;2.80;1.80;;;;;;;3.33;55.77;98982.16;5081863;28;20032;-89
2021/01/19 07:49:10;;;;;;;1.40;0.97;;;;;;;3.53;54.82;98987.50;5081098;28;20472;-88
2021/01/19 07:51:48;;;;;;;1.80;1.13;;;;;;;3.47;55.93;98978.16;5077847;28;20033;-87
2021/01/19 07:54:21;;;;;;;1.80;1.20;;;;;;;3.46;55.39;98986.59;5046738;28;20088;-88
2021/01/19 07:56:46;;;;;;;5.30;2.33;;;;;;;3.42;55.62;98997.50;5080238;28;20070;-88
2021/01/19 07:59:17;;;;;;;2.57;1.30;;;;;;;3.39;55.75;98977.19;5081393;28;20028;-88
2021/01/19 08:01:54;;;;;;;1.70;1.10;;;;;;;3.51;55.44;98984.97;5080988;28;20047;-89
2021/01/19 08:04:28;;;;;;;2.50;2.30;;;;;;;3.52;55.70;98994.25;5064160;28;20071;-87
2021/01/19 08:06:54;;;;;;;4.57;1.50;;;;;;;3.40;55.45;98978.88;5080571;28;20037;-88
2021/01/19 08:09:20;;;;;;;2.30;1.40;;;;;;;3.60;55.36;98985.13;5074313;28;20091;-87
2021/01/19 08:11:46;;;;;;;3.93;1.63;;;;;;;3.38;55.47;98957.75;5064753;28;20032;-89
2021/01/19 08:14:11;;;;;;;5.13;2.33;;;;;;;3.43;55.20;98957.81;5079352;28;20044;-88
2021/01/19 08:16:41;;;;;;;3.30;1.80;;;;;;;3.42;55.40;98956.97;5074994;28;20040;-90
2021/01/19 08:19:10;;;;;;;4.63;1.83;;;;;;;3.61;55.01;98989.34;5077153;28;20067;-87
2021/01/19 08:21:46;;;;;;;2.97;1.60;;;;;;;3.50;54.83;98952.00;5058450;28;20428;-89
2021/01/19 08:24:11;;;;;;;2.90;1.40;;;;;;;3.47;54.66;98949.44;5058083;28;20032;-89
2021/01/19 08:26:37;;;;;;;4.40;1.60;;;;;;;3.48;54.37;98944.34;5057618;28;20060;-87
2021/01/19 08:29:04;;;;;;;5.10;2.03;;;;;;;3.85;54.29;98993.06;5039360;28;20037;-87
2021/01/19 08:31:30;;;;;;;4.80;1.17;;;;;;;3.76;54.64;98980.25;5061583;28;20064;-89
2021/01/19 08:34:07;;;;;;;2.47;1.10;;;;;;;3.83;54.30;98990.47;5058605;28;20222;-89
2021/01/19 08:36:36;;;;;;;1.97;1.30;;;;;;;3.90;53.99;98982.16;5075402;28;20047;-89
2021/01/19 08:39:04;;;;;;;1.37;1.03;;;;;;;4.00;54.21;98981.41;5076330;28;20043;-88
2021/01/19 08:41:30;;;;;;;3.33;1.50;;;;;;;3.90;54.14;98964.41;5055825;28;20368;-88
2021/01/19 08:44:03;;;;;;;4.07;1.43;;;;;;;3.99;53.12;98967.03;5075955;28;20041;-88
2021/01/19 08:46:30;;;;;;;1.80;0.90;;;;;;;4.16;53.04;98979.91;5058997;28;20040;-89
2021/01/19 08:49:04;;;;;;;1.57;0.70;;;;;;;4.04;52.69;98962.00;5058622;28;20103;-88
2021/01/19 08:51:30;;;;;;;1.33;0.80;;;;;;;4.19;53.26;98979.97;5058069;28;20423;-89
2021/01/19 08:53:56;;;;;;;0.80;0.80;;;;;;;4.13;53.52;98975.66;5074817;28;20064;-87
2021/01/19 08:56:30;;;;;;;0.83;0.73;;;;;;;4.21;52.69;99006.19;5076581;28;20046;-88
2021/01/19 08:58:55;;;;;;;1.97;1.17;;;;;;;4.25;52.53;98974.09;5058646;28;20023;-88
2021/01/19 09:01:21;;;;;;;2.07;1.43;;;;;;;4.22;52.22;98968.97;5063286;28;20044;-88
2021/01/19 09:03:58;;;;;;;2.63;1.20;;;;;;;4.21;52.20;98946.97;5096873;28;20040;-87
2021/01/19 09:06:24;;;;;;;1.17;0.93;;;;;;;4.38;51.80;98974.25;5079626;28;20028;-86
2021/01/19 09:09:01;;;;;;;2.20;1.20;;;;;;;4.22;52.06;98962.22;5079034;28;20028;-88
2021/01/19 09:11:32;;;;;;;1.57;1.27;;;;;;;4.38;51.76;98964.09;5060038;28;20075;-89
2021/01/19 09:14:08;;;;;;;2.13;1.07;;;;;;;4.41;51.47;98976.00;5063185;28;20122;-88
2021/01/19 09:16:35;;;;;;;2.53;0.83;;;;;;;4.58;52.05;98979.56;5075133;28;20035;-88
2021/01/19 09:19:03;;;;;;;2.20;1.20;;;;;;;4.64;50.81;98977.06;5075658;28;20039;-88
2021/01/19 09:21:29;;;;;;;4.53;1.73;;;;;;;4.43;51.41;98941.31;5074194;28;20029;-89
2021/01/19 09:24:22;;;;;;;3.30;1.17;;;;;;;4.84;51.31;98985.72;5057017;28;20519;-89
2021/01/19 09:27:00;;;;;;;1.50;1.30;;;;;;;5.04;51.47;98979.16;5047006;28;20052;-90
2021/01/19 09:29:30;;;;;;;1.10;1.00;;;;;;;5.09;50.64;98983.41;5079368;28;20107;-88
2021/01/19 09:32:00;;;;;;;1.37;0.87;;;;;;;5.12;50.35;98974.13;5086863;28;20036;-89
2021/01/19 09:34:26;;;;;;;2.47;1.10;;;;;;;4.96;50.97;98974.84;5075791;28;20032;-88
2021/01/19 09:36:52;;;;;;;1.77;0.80;;;;;;;4.98;50.38;98979.09;5093126;28;20092;-90
2021/01/19 09:39:29;;;;;;;2.23;1.20;;;;;;;5.08;50.44;98969.84;5076872;28;20052;-89
2021/01/19 09:41:57;;;;;;;0.97;0.77;;;;;;;5.04;49.89;98945.25;5078270;28;20030;-87
2021/01/19 09:44:23;;;;;;;1.60;1.10;;;;;;;5.15;50.26;98963.97;5059463;28;20166;-89
2021/01/19 09:46:57;;;;;;;1.17;0.90;;;;;;;5.11;49.84;98947.00;5055606;28;20033;-89
2021/01/19 09:49:23;;;;;;;0.90;0.70;;;;;;;4.87;50.11;98890.94;5040021;28;20401;-90
2021/01/19 09:51:49;;;;;;;1.20;1.10;;;;;;;5.30;49.46;98915.81;5078699;28;20092;-90
2021/01/19 09:54:22;;;;;;;4.33;1.73;;;;;;;5.60;50.13;98942.25;5078914;28;20433;-90
2021/01/19 09:56:57;;;;;;;1.40;1.30;;;;;;;5.71;48.87;98917.72;5057112;28;20032;-89
2021/01/19 09:59:26;;;;;;;;;;;;;;;6.21;47.93;98933.22;5076664;28;20036;-90
2021/01/19 10:01:54;;;;;;;3.23;1.53;;;;;;;6.31;47.94;98925.63;5059074;28;19912;-87
2021/01/19 10:04:20;;;;;;;4.10;2.10;;;;;;;6.42;47.89;98893.38;5060723;28;20109;-87
2021/01/19 10:06:45;;;;;;;8.90;4.93;;;;;;;6.61;46.75;98893.41;5077476;28;20067;-88
2021/01/19 10:09:23;;;;;;;12.57;7.07;;;;;;;6.98;46.41;98901.91;5078311;28;20179;-90
2021/01/19 10:12:07;;;;;;;5.03;3.80;;;;;;;6.95;46.93;98907.03;5060359;28;20381;-88
2021/01/19 10:14:34;;;;;;;3.90;2.07;;;;;;;6.62;47.85;98882.38;5043625;28;20480;-86
2021/01/19 10:17:00;;;;;;;4.07;2.40;;;;;;;6.89;48.62;98895.13;5053183;28;20033;-87
2021/01/19 10:19:28;;;;;;;3.47;2.20;;;;;;;6.73;48.99;98866.25;5058484;28;20035;-89
2021/01/19 10:21:56;;;;;;;6.47;3.43;;;;;;;6.71;48.70;98857.75;5057182;28;20063;-86
2021/01/19 10:24:22;;;;;;;6.33;3.23;;;;;;;6.65;47.77;98833.97;5073928;28;20040;-88
2021/01/19 10:27:03;;;;;;;9.03;4.30;;;;;;;6.75;47.52;98858.59;5058776;28;20056;-85
2021/01/19 10:29:31;;;;;;;5.27;2.30;;;;;;;6.46;48.58;98870.47;5052728;28;20025;-86
2021/01/19 10:32:00;;;;;;;4.50;2.40;;;;;;;6.39;48.06;98861.97;5050272;28;20099;-86
2021/01/19 10:34:28;;;;;;;5.23;2.80;;;;;;;6.41;48.04;98862.81;5050960;28;20029;-83
2021/01/19 10:36:58;;;;;;;5.97;2.87;;;;;;;6.14;48.91;98834.78;5036396;28;20091;-87
2021/01/19 10:39:24;;;;;;;3.70;2.10;;;;;;;6.16;48.24;98841.56;5035316;28;20041;-88
2021/01/19 10:41:51;;;;;;;5.40;3.23;;;;;;;6.15;48.58;98844.13;5035702;28;20063;-88
2021/01/19 10:44:17;;;;;;;6.13;3.20;;;;;;;6.34;48.44;98849.25;5052468;28;20454;-88
2021/01/19 10:46:44;;;;;;;6.73;3.30;;;;;;;6.02;48.50;98830.53;5049794;28;20450;-85
2021/01/19 10:49:12;;;;;;;6.37;3.40;;;;;;;6.09;48.19;98816.97;5032481;28;20038;-89
2021/01/19 10:51:38;;;;;;;6.40;3.63;;;;;;;6.39;48.40;98816.16;5033981;28;20036;-87
2021/01/19 10:54:16;;;;;;;4.50;2.60;;;;;;;6.55;47.75;98839.91;5037060;28;20043;-87
2021/01/19 10:56:44;;;;;;;5.53;3.40;;;;;;;6.30;47.53;98827.19;5049421;28;20044;-89
2021/01/19 10:59:09;;;;;;;3.97;2.90;;;;;;;6.12;47.59;98780.47;5033269;28;20040;-89
2021/01/19 11:01:35;;;;;;;5.07;2.30;;;;;;;6.55;47.49;98817.00;5035701;28;20125;-87
2021/01/19 11:04:01;;;;;;;6.73;3.23;;;;;;;6.48;47.74;98800.03;5039545;28;20029;-87
2021/01/19 11:06:31;;;;;;;4.03;2.60;;;;;;;6.50;47.40;98765.19;5058397;28;20041;-88
2021/01/19 11:08:57;;;;;;;5.70;2.33;;;;;;;6.77;46.89;98803.41;5040477;28;20531;-86
2021/01/19 11:11:23;;;;;;;3.77;2.10;;;;;;;6.46;46.72;98766.06;5057832;28;20037;-87
2021/01/19 11:13:48;;;;;;;6.60;2.13;;;;;;;6.65;46.29;98793.22;5063021;28;20524;-88
2021/01/19 11:16:13;;;;;;;4.63;2.60;;;;;;;6.51;46.71;98743.97;5069140;28;20036;-88
2021/01/19 11:18:39;;;;;;;3.10;2.30;;;;;;;6.76;46.41;98766.88;5045101;28;20035;-87
2021/01/19 11:21:05;;;;;;;4.23;1.70;;;;;;;6.49;46.42;98745.69;5058381;28;20033;-86
2021/01/19 11:23:31;;;;;;;4.83;3.07;;;;;;;6.77;47.51;98773.69;5042169;28;20032;-87
2021/01/19 11:25:57;;;;;;;3.00;1.93;;;;;;;6.76;46.52;98769.44;5048426;28;20052;-87
2021/01/19 11:28:22;;;;;;;2.90;2.13;;;;;;;6.61;45.64;98733.81;5063396;28;20576;-87
2021/01/19 11:30:50;;;;;;;6.33;3.03;;;;;;;6.59;46.23;98732.94;5060545;28;20037;-88
2021/01/19 11:33:15;;;;;;;4.63;2.17;;;;;;;6.39;46.25;98727.03;5080091;28;20028;-87
2021/01/19 11:35:41;;;;;;;3.70;1.83;;;;;;;6.47;46.20;98737.19;5084828;28;20400;-87
2021/01/19 11:38:06;;;;;;;3.23;2.13;;;;;;;6.46;45.81;98741.44;5075689;28;20089;-87
2021/01/19 11:40:32;;;;;;;5.47;2.87;;;;;;;6.36;46.06;98727.03;5058719;28;20093;-88
2021/01/19 11:42:57;;;;;;;3.10;2.30;;;;;;;6.16;47.09;98723.63;5073999;28;20032;-87
2021/01/19 11:45:44;;;;;;;4.70;3.60;;;;;;;6.36;47.15;98721.94;5088456;28;20029;-94
2021/01/19 11:48:10;;;;;;;5.80;2.30;;;;;;;6.10;46.98;98665.13;5069008;28;20033;-91
2021/01/19 11:50:35;;;;;;;3.93;2.50;;;;;;;5.97;46.26;98649.84;5090116;28;20028;-93
2021/01/19 11:53:01;;;;;;;6.80;2.60;;;;;;;6.25;45.76;98650.66;5073183;28;20044;-93
2021/01/19 11:55:27;;;;;;;5.53;2.20;;;;;;;6.20;45.26;98664.22;5072573;28;20062;-91
2021/01/19 11:57:56;;;;;;;6.63;3.43;;;;;;;6.50;46.32;98711.72;5069797;28;20028;-92
2021/01/19 12:00:22;;;;;;;5.47;2.90;;;;;;;6.31;46.02;98640.47;5073080;28;20037;-92